Kewadin, Michigan
Current Conditions -  °F | °C
As of 4:17 PM on Tuesday 21 Oct 2014 (Local Time) from KACB Reporting Station
Clear Clear  
Wind Chill: 50°   Ceiling: Unl
Heat Index: 50°   Visibility: 10mi
Dew Point: 29°   Wind: 6mph
Humidity: 44%   Direction: 360°N
Pressure: 30.2"   Gusts: NA
Location:  44.93°N, 85.37°W
Report Text: KACB 212017Z AUTO 36005KT 10SM CLR 10/M02 A3020 RMK AO2 T01021017
Loading
Personal Weather Stations






























Interactive Weather Map
Tropical Storm Tracking
New forecast layout! Learn more

10-Day Weather Forecast

Advertisements
Track Severe Weather on mobile